sensor_id;sensor_type;location;lat;lon;timestamp;pressure;altitude;pressure_sealevel;temperature;humidity
43436;BME280;36399;51.444;-2.018;2023-03-26T00:01:34;99397.88;;;7.60;100.00
43436;BME280;36399;51.444;-2.018;2023-03-26T00:04:05;99387.41;;;7.60;100.00
43436;BME280;36399;51.444;-2.018;2023-03-26T00:06:38;99379.59;;;7.60;100.00
43436;BME280;36399;51.444;-2.018;2023-03-26T00:09:13;99363.91;;;7.57;100.00
43436;BME280;36399;51.444;-2.018;2023-03-26T00:11:43;99362.13;;;7.53;100.00
43436;BME280;36399;51.444;-2.018;2023-03-26T00:14:11;99349.13;;;7.61;100.00
43436;BME280;36399;51.444;-2.018;2023-03-26T00:16:40;99342.97;;;7.54;100.00
43436;BME280;36399;51.444;-2.018;2023-03-26T00:19:10;99341.25;;;7.56;100.00
43436;BME280;36399;51.444;-2.018;2023-03-26T00:21:40;99339.47;;;7.49;100.00
43436;BME280;36399;51.444;-2.018;2023-03-26T00:24:09;99336.84;;;7.49;100.00
43436;BME280;36399;51.444;-2.018;2023-03-26T00:26:39;99334.25;;;7.52;100.00
43436;BME280;36399;51.444;-2.018;2023-03-26T00:29:07;99328.13;;;7.44;100.00
43436;BME280;36399;51.444;-2.018;2023-03-26T00:31:35;99325.50;;;7.41;100.00
43436;BME280;36399;51.444;-2.018;2023-03-26T00:34:10;99326.38;;;7.42;100.00
43436;BME280;36399;51.444;-2.018;2023-03-26T00:36:38;99320.25;;;7.41;100.00
43436;BME280;36399;51.444;-2.018;2023-03-26T00:39:07;99329.78;;;7.32;100.00
43436;BME280;36399;51.444;-2.018;2023-03-26T00:41:34;99322.88;;;7.40;100.00
43436;BME280;36399;51.444;-2.018;2023-03-26T00:44:02;99318.47;;;7.31;100.00
43436;BME280;36399;51.444;-2.018;2023-03-26T00:46:30;99317.50;;;7.23;100.00
43436;BME280;36399;51.444;-2.018;2023-03-26T00:48:58;99327.00;;;7.15;100.00
43436;BME280;36399;51.444;-2.018;2023-03-26T00:51:25;99324.38;;;7.15;100.00
43436;BME280;36399;51.444;-2.018;2023-03-26T00:53:51;99325.22;;;7.11;100.00
43436;BME280;36399;51.444;-2.018;2023-03-26T00:56:18;99323.44;;;7.07;100.00
43436;BME280;36399;51.444;-2.018;2023-03-26T00:58:44;99324.31;;;7.04;100.00
43436;BME280;36399;51.444;-2.018;2023-03-26T01:01:21;99326.03;;;7.04;100.00
43436;BME280;36399;51.444;-2.018;2023-03-26T01:03:53;99322.50;;;6.97;100.00
43436;BME280;36399;51.444;-2.018;2023-03-26T01:06:27;99323.38;;;6.97;100.00
43436;BME280;36399;51.444;-2.018;2023-03-26T01:09:02;99323.34;;;6.94;100.00
43436;BME280;36399;51.444;-2.018;2023-03-26T01:11:31;99316.47;;;7.03;100.00
43436;BME280;36399;51.444;-2.018;2023-03-26T01:14:19;99315.56;;;6.99;100.00
43436;BME280;36399;51.444;-2.018;2023-03-26T01:16:50;99313.84;;;7.01;100.00
43436;BME280;36399;51.444;-2.018;2023-03-26T01:19:28;99316.38;;;6.93;100.00
43436;BME280;36399;51.444;-2.018;2023-03-26T01:21:59;99313.00;;;7.05;100.00
43436;BME280;36399;51.444;-2.018;2023-03-26T01:24:25;99311.19;;;6.95;100.00
43436;BME280;36399;51.444;-2.018;2023-03-26T01:26:54;99309.41;;;6.89;100.00
43436;BME280;36399;51.444;-2.018;2023-03-26T01:29:53;99307.66;;;6.88;100.00
43436;BME280;36399;51.444;-2.018;2023-03-26T01:35:36;99300.69;;;6.87;100.00
43436;BME280;36399;51.444;-2.018;2023-03-26T01:38:15;99302.38;;;6.82;100.00
43436;BME280;36399;51.444;-2.018;2023-03-26T01:41:05;99301.47;;;6.77;100.00
43436;BME280;36399;51.444;-2.018;2023-03-26T01:46:25;99294.63;;;6.90;100.00
43436;BME280;36399;51.444;-2.018;2023-03-26T01:48:52;99291.84;;;6.73;100.00
43436;BME280;36399;51.444;-2.018;2023-03-26T01:51:32;99283.97;;;6.69;100.00
43436;BME280;36399;51.444;-2.018;2023-03-26T01:54:01;99286.56;;;6.67;100.00
43436;BME280;36399;51.444;-2.018;2023-03-26T02:04:55;99270.88;;;6.62;100.00
43436;BME280;36399;51.444;-2.018;2023-03-26T02:07:26;99263.88;;;6.57;100.00
43436;BME280;36399;51.444;-2.018;2023-03-26T02:10:06;99262.16;;;6.59;100.00
43436;BME280;36399;51.444;-2.018;2023-03-26T02:12:35;99250.81;;;6.54;100.00
43436;BME280;36399;51.444;-2.018;2023-03-26T02:15:03;99248.16;;;6.51;100.00
43436;BME280;36399;51.444;-2.018;2023-03-26T02:17:29;99249.91;;;6.52;100.00
43436;BME280;36399;51.444;-2.018;2023-03-26T02:19:57;99248.97;;;6.44;100.00
43436;BME280;36399;51.444;-2.018;2023-03-26T02:22:23;99249.84;;;6.46;100.00
43436;BME280;36399;51.444;-2.018;2023-03-26T02:24:54;99246.41;;;6.50;100.00
43436;BME280;36399;51.444;-2.018;2023-03-26T02:27:20;99249.81;;;6.40;100.00
43436;BME280;36399;51.444;-2.018;2023-03-26T02:29:46;99240.31;;;6.46;100.00
43436;BME280;36399;51.444;-2.018;2023-03-26T02:32:12;99241.06;;;6.35;100.00
43436;BME280;36399;51.444;-2.018;2023-03-26T02:34:39;99226.22;;;6.27;100.00
43436;BME280;36399;51.444;-2.018;2023-03-26T02:37:06;99223.63;;;6.27;100.00
43436;BME280;36399;51.444;-2.018;2023-03-26T02:39:32;99221.81;;;6.23;100.00
43436;BME280;36399;51.444;-2.018;2023-03-26T02:41:58;99223.53;;;6.21;100.00
43436;BME280;36399;51.444;-2.018;2023-03-26T02:44:24;99223.50;;;6.18;100.00
43436;BME280;36399;51.444;-2.018;2023-03-26T02:46:50;99218.25;;;6.15;100.00
43436;BME280;36399;51.444;-2.018;2023-03-26T02:49:16;99218.22;;;6.12;100.00
43436;BME280;36399;51.444;-2.018;2023-03-26T02:51:42;99219.88;;;6.04;100.00
43436;BME280;36399;51.444;-2.018;2023-03-26T02:54:08;99212.88;;;6.00;100.00
43436;BME280;36399;51.444;-2.018;2023-03-26T02:56:34;99207.59;;;5.92;100.00
43436;BME280;36399;51.444;-2.018;2023-03-26T02:59:00;99213.66;;;5.91;100.00
43436;BME280;36399;51.444;-2.018;2023-03-26T03:01:26;99213.53;;;5.82;100.00
43436;BME280;36399;51.444;-2.018;2023-03-26T03:03:55;99208.28;;;5.79;100.00
43436;BME280;36399;51.444;-2.018;2023-03-26T03:06:21;99207.38;;;5.76;100.00
43436;BME280;36399;51.444;-2.018;2023-03-26T03:08:47;99201.19;;;5.69;100.00
43436;BME280;36399;51.444;-2.018;2023-03-26T03:11:18;99210.72;;;5.68;100.00
43436;BME280;36399;51.444;-2.018;2023-03-26T03:13:49;99208.94;;;5.64;100.00
43436;BME280;36399;51.444;-2.018;2023-03-26T03:16:15;99210.66;;;5.62;100.00
43436;BME280;36399;51.444;-2.018;2023-03-26T03:18:42;99209.81;;;5.65;100.00
43436;BME280;36399;51.444;-2.018;2023-03-26T03:21:08;99212.41;;;5.63;100.00
43436;BME280;36399;51.444;-2.018;2023-03-26T03:23:35;99215.91;;;5.67;100.00
43436;BME280;36399;51.444;-2.018;2023-03-26T03:26:01;99219.31;;;5.61;100.00
43436;BME280;36399;51.444;-2.018;2023-03-26T03:28:27;99213.22;;;5.59;100.00
43436;BME280;36399;51.444;-2.018;2023-03-26T03:30:53;99219.25;;;5.55;100.00
43436;BME280;36399;51.444;-2.018;2023-03-26T03:33:22;99220.03;;;5.50;100.00
43436;BME280;36399;51.444;-2.018;2023-03-26T03:35:49;99223.50;;;5.49;100.00
43436;BME280;36399;51.444;-2.018;2023-03-26T03:38:16;99219.13;;;5.46;100.00
43436;BME280;36399;51.444;-2.018;2023-03-26T03:40:44;99220.81;;;5.41;100.00
43436;BME280;36399;51.444;-2.018;2023-03-26T03:43:10;99218.22;;;5.43;100.00
43436;BME280;36399;51.444;-2.018;2023-03-26T03:45:36;99220.81;;;5.41;100.00
43436;BME280;36399;51.444;-2.018;2023-03-26T03:48:02;99225.16;;;5.44;100.00
43436;BME280;36399;51.444;-2.018;2023-03-26T03:50:28;99226.09;;;5.47;100.00
43436;BME280;36399;51.444;-2.018;2023-03-26T03:52:54;99220.84;;;5.44;100.00
43436;BME280;36399;51.444;-2.018;2023-03-26T03:55:20;99218.19;;;5.39;100.00
43436;BME280;36399;51.444;-2.018;2023-03-26T03:57:48;99216.47;;;5.42;100.00
43436;BME280;36399;51.444;-2.018;2023-03-26T04:00:16;99213.81;;;5.37;100.00
43436;BME280;36399;51.444;-2.018;2023-03-26T04:02:42;99219.00;;;5.37;100.00
43436;BME280;36399;51.444;-2.018;2023-03-26T04:05:11;99223.31;;;5.33;100.00
43436;BME280;36399;51.444;-2.018;2023-03-26T04:07:37;99211.16;;;5.32;100.00
43436;BME280;36399;51.444;-2.018;2023-03-26T04:10:05;99222.38;;;5.30;100.00
43436;BME280;36399;51.444;-2.018;2023-03-26T04:12:31;99224.09;;;5.28;100.00
43436;BME280;36399;51.444;-2.018;2023-03-26T04:14:57;99229.38;;;5.34;100.00
43436;BME280;36399;51.444;-2.018;2023-03-26T04:17:24;99229.47;;;5.40;100.00
43436;BME280;36399;51.444;-2.018;2023-03-26T04:19:50;99229.47;;;5.40;100.00
43436;BME280;36399;51.444;-2.018;2023-03-26T04:22:20;99227.75;;;5.42;100.00
43436;BME280;36399;51.444;-2.018;2023-03-26T04:24:46;99231.28;;;5.47;100.00
43436;BME280;36399;51.444;-2.018;2023-03-26T04:27:17;99236.56;;;5.53;100.00
43436;BME280;36399;51.444;-2.018;2023-03-26T04:29:46;99231.44;;;5.59;100.00
43436;BME280;36399;51.444;-2.018;2023-03-26T04:32:24;99236.47;;;5.44;100.00
43436;BME280;36399;51.444;-2.018;2023-03-26T04:34:51;99236.38;;;5.38;100.00
43436;BME280;36399;51.444;-2.018;2023-03-26T04:37:24;99234.66;;;5.40;100.00
43436;BME280;36399;51.444;-2.018;2023-03-26T04:39:52;99239.03;;;5.43;100.00
43436;BME280;36399;51.444;-2.018;2023-03-26T04:42:19;99236.41;;;5.41;100.00
43436;BME280;36399;51.444;-2.018;2023-03-26T04:44:46;99238.16;;;5.42;100.00
43436;BME280;36399;51.444;-2.018;2023-03-26T04:47:16;99241.50;;;5.32;100.00
43436;BME280;36399;51.444;-2.018;2023-03-26T04:49:44;99237.97;;;5.27;100.00
43436;BME280;36399;51.444;-2.018;2023-03-26T04:52:10;99240.53;;;5.25;100.00
43436;BME280;36399;51.444;-2.018;2023-03-26T04:54:37;99238.69;;;5.20;100.00
43436;BME280;36399;51.444;-2.018;2023-03-26T04:57:32;99239.53;;;5.19;100.00
43436;BME280;36399;51.444;-2.018;2023-03-26T04:59:59;99245.72;;;5.24;100.00
43436;BME280;36399;51.444;-2.018;2023-03-26T05:02:25;99245.63;;;5.19;100.00
43436;BME280;36399;51.444;-2.018;2023-03-26T05:04:51;99244.72;;;5.16;100.00
43436;BME280;36399;51.444;-2.018;2023-03-26T05:07:21;99249.06;;;5.18;100.00
43436;BME280;36399;51.444;-2.018;2023-03-26T05:09:50;99252.50;;;5.14;100.00
43436;BME280;36399;51.444;-2.018;2023-03-26T05:12:15;99237.72;;;5.12;100.00
43436;BME280;36399;51.444;-2.018;2023-03-26T05:14:41;99255.03;;;5.10;100.00
43436;BME280;36399;51.444;-2.018;2023-03-26T05:17:13;99253.38;;;5.15;100.00
43436;BME280;36399;51.444;-2.018;2023-03-26T05:19:39;99257.63;;;5.10;100.00
43436;BME280;36399;51.444;-2.018;2023-03-26T05:22:06;99264.53;;;5.07;100.00
43436;BME280;36399;51.444;-2.018;2023-03-26T05:24:32;99266.22;;;5.05;100.00
43436;BME280;36399;51.444;-2.018;2023-03-26T05:26:58;99263.59;;;5.02;100.00
43436;BME280;36399;51.444;-2.018;2023-03-26T05:29:24;99266.22;;;5.05;100.00
43436;BME280;36399;51.444;-2.018;2023-03-26T05:31:50;99269.69;;;5.04;100.00
43436;BME280;36399;51.444;-2.018;2023-03-26T05:34:16;99277.44;;;5.01;100.00
43436;BME280;36399;51.444;-2.018;2023-03-26T05:36:42;99274.91;;;5.06;100.00
43436;BME280;36399;51.444;-2.018;2023-03-26T05:39:08;99291.34;;;5.03;100.00
43436;BME280;36399;51.444;-2.018;2023-03-26T05:41:34;99289.63;;;5.05;100.00
43436;BME280;36399;51.444;-2.018;2023-03-26T05:44:00;99300.91;;;5.06;100.00
43436;BME280;36399;51.444;-2.018;2023-03-26T05:46:26;99297.41;;;5.04;100.00
43436;BME280;36399;51.444;-2.018;2023-03-26T05:48:52;99311.31;;;5.04;100.00
43436;BME280;36399;51.444;-2.018;2023-03-26T05:51:19;99305.19;;;5.02;100.00
43436;BME280;36399;51.444;-2.018;2023-03-26T05:53:45;99313.94;;;5.07;100.00
43436;BME280;36399;51.444;-2.018;2023-03-26T05:56:11;99311.44;;;5.14;100.00
43436;BME280;36399;51.444;-2.018;2023-03-26T05:58:37;99317.69;;;5.22;100.00
43436;BME280;36399;51.444;-2.018;2023-03-26T06:01:06;99323.06;;;5.34;100.00
43436;BME280;36399;51.444;-2.018;2023-03-26T06:03:37;99321.22;;;5.27;100.00
43436;BME280;36399;51.444;-2.018;2023-03-26T06:06:11;99331.53;;;5.21;100.00
43436;BME280;36399;51.444;-2.018;2023-03-26T06:08:45;99334.06;;;5.18;100.00
43436;BME280;36399;51.444;-2.018;2023-03-26T06:11:14;99326.13;;;5.10;100.00
43436;BME280;36399;51.444;-2.018;2023-03-26T06:13:41;99336.50;;;5.08;100.00
43436;BME280;36399;51.444;-2.018;2023-03-26T06:16:09;99333.09;;;5.13;100.00
43436;BME280;36399;51.444;-2.018;2023-03-26T06:18:36;99340.97;;;5.17;100.00
43436;BME280;36399;51.444;-2.018;2023-03-26T06:21:03;99340.94;;;5.14;100.00
43436;BME280;36399;51.444;-2.018;2023-03-26T06:23:29;99347.00;;;5.15;100.00
43436;BME280;36399;51.444;-2.018;2023-03-26T06:25:55;99348.75;;;5.14;100.00
43436;BME280;36399;51.444;-2.018;2023-03-26T06:28:22;99350.47;;;5.14;100.00
43436;BME280;36399;51.444;-2.018;2023-03-26T06:30:49;99348.75;;;5.16;100.00
43436;BME280;36399;51.444;-2.018;2023-03-26T06:33:15;99354.00;;;5.17;100.00
43436;BME280;36399;51.444;-2.018;2023-03-26T06:35:41;99360.97;;;5.20;100.00
43436;BME280;36399;51.444;-2.018;2023-03-26T06:38:08;99365.34;;;5.21;100.00
43436;BME280;36399;51.444;-2.018;2023-03-26T06:40:34;99371.56;;;5.29;100.00
43436;BME280;36399;51.444;-2.018;2023-03-26T06:43:00;99377.72;;;5.34;100.00
43436;BME280;36399;51.444;-2.018;2023-03-26T06:45:27;99391.59;;;5.34;100.00
43436;BME280;36399;51.444;-2.018;2023-03-26T06:48:00;99363.09;;;5.42;100.00
43436;BME280;36399;51.444;-2.018;2023-03-26T06:50:26;99366.78;;;5.56;100.00
43436;BME280;36399;51.444;-2.018;2023-03-26T06:52:53;99361.50;;;5.52;100.00
43436;BME280;36399;51.444;-2.018;2023-03-26T06:55:23;99371.97;;;5.56;100.00
43436;BME280;36399;51.444;-2.018;2023-03-26T06:57:51;99379.97;;;5.68;100.00
43436;BME280;36399;51.444;-2.018;2023-03-26T07:00:18;99382.56;;;5.68;100.00
43436;BME280;36399;51.444;-2.018;2023-03-26T07:02:45;99390.41;;;5.70;100.00
43436;BME280;36399;51.444;-2.018;2023-03-26T07:05:12;99393.00;;;5.68;100.00
43436;BME280;36399;51.444;-2.018;2023-03-26T07:07:39;99400.84;;;5.71;100.00
43436;BME280;36399;51.444;-2.018;2023-03-26T07:10:05;99403.53;;;5.75;100.00
43436;BME280;36399;51.444;-2.018;2023-03-26T07:12:32;99406.22;;;5.81;100.00
43436;BME280;36399;51.444;-2.018;2023-03-26T07:14:59;99418.31;;;5.77;100.00
43436;BME280;36399;51.444;-2.018;2023-03-26T07:17:26;99417.44;;;5.77;100.00
43436;BME280;36399;51.444;-2.018;2023-03-26T07:19:52;99427.75;;;5.70;100.00
43436;BME280;36399;51.444;-2.018;2023-03-26T07:22:21;99427.75;;;5.72;100.00
43436;BME280;36399;51.444;-2.018;2023-03-26T07:24:48;99438.31;;;5.80;100.00
43436;BME280;36399;51.444;-2.018;2023-03-26T07:27:37;99442.00;;;5.91;100.00
43436;BME280;36399;51.444;-2.018;2023-03-26T07:30:52;99442.03;;;5.92;100.00
43436;BME280;36399;51.444;-2.018;2023-03-26T07:36:14;99436.88;;;5.97;100.00
43436;BME280;36399;51.444;-2.018;2023-03-26T07:38:54;99445.75;;;6.11;100.00
43436;BME280;36399;51.444;-2.018;2023-03-26T07:41:30;99449.19;;;6.07;100.00
43436;BME280;36399;51.444;-2.018;2023-03-26T07:46:31;99452.81;;;6.18;100.00
43436;BME280;36399;51.444;-2.018;2023-03-26T07:48:58;99446.00;;;6.26;100.00
43436;BME280;36399;51.444;-2.018;2023-03-26T07:51:27;99451.28;;;6.32;100.00
43436;BME280;36399;51.444;-2.018;2023-03-26T07:53:53;99453.13;;;6.40;100.00
43436;BME280;36399;51.444;-2.018;2023-03-26T07:56:33;99448.81;;;6.42;100.00
43436;BME280;36399;51.444;-2.018;2023-03-26T07:59:36;99456.56;;;6.36;100.00
43436;BME280;36399;51.444;-2.018;2023-03-26T08:21:14;99480.91;;;6.38;100.00
43436;BME280;36399;51.444;-2.018;2023-03-26T08:24:10;99467.06;;;6.43;100.00
43436;BME280;36399;51.444;-2.018;2023-03-26T08:30:21;99478.75;;;6.73;100.00
43436;BME280;36399;51.444;-2.018;2023-03-26T08:32:28;99479.94;;;6.97;100.00
43436;BME280;36399;51.444;-2.018;2023-03-26T08:34:53;99481.78;;;7.08;100.00
43436;BME280;36399;51.444;-2.018;2023-03-26T08:37:22;99487.09;;;7.17;100.00
43436;BME280;36399;51.444;-2.018;2023-03-26T08:39:48;99493.22;;;7.20;100.00
43436;BME280;36399;51.444;-2.018;2023-03-26T08:42:33;99498.66;;;7.37;100.00
43436;BME280;36399;51.444;-2.018;2023-03-26T08:45:22;99487.44;;;7.50;100.00
43436;BME280;36399;51.444;-2.018;2023-03-26T08:56:02;99491.00;;;7.58;100.00
43436;BME280;36399;51.444;-2.018;2023-03-26T09:04:34;99489.72;;;8.12;100.00
43436;BME280;36399;51.444;-2.018;2023-03-26T09:18:19;99507.03;;;7.98;100.00
43436;BME280;36399;51.444;-2.018;2023-03-26T09:31:57;99527.16;;;8.08;100.00
43436;BME280;36399;51.444;-2.018;2023-03-26T09:37:24;99527.25;;;8.23;100.00
43436;BME280;36399;51.444;-2.018;2023-03-26T09:40:12;99524.47;;;7.99;100.00
43436;BME280;36399;51.444;-2.018;2023-03-26T09:49:04;99559.19;;;7.86;100.00
43436;BME280;36399;51.444;-2.018;2023-03-26T09:51:39;99561.78;;;7.83;100.00
43436;BME280;36399;51.444;-2.018;2023-03-26T09:59:53;99581.06;;;7.97;100.00
43436;BME280;36399;51.444;-2.018;2023-03-26T10:02:42;99590.91;;;8.26;100.00
43436;BME280;36399;51.444;-2.018;2023-03-26T10:10:57;99601.56;;;8.44;100.00
43436;BME280;36399;51.444;-2.018;2023-03-26T10:13:37;99613.81;;;8.51;100.00
43436;BME280;36399;51.444;-2.018;2023-03-26T10:25:25;99623.13;;;9.54;100.00
43436;BME280;36399;51.444;-2.018;2023-03-26T10:42:19;99650.34;;;10.04;100.00
43436;BME280;36399;51.444;-2.018;2023-03-26T10:45:11;99651.28;;;10.89;100.00
43436;BME280;36399;51.444;-2.018;2023-03-26T10:56:28;99628.59;;;16.03;100.00
43436;BME280;36399;51.444;-2.018;2023-03-26T10:59:00;99629.00;;;15.85;100.00
43436;BME280;36399;51.444;-2.018;2023-03-26T11:07:10;99656.28;;;11.77;100.00
43436;BME280;36399;51.444;-2.018;2023-03-26T11:12:34;99698.50;;;10.28;100.00
43436;BME280;36399;51.444;-2.018;2023-03-26T11:15:24;99699.13;;;9.58;100.00
43436;BME280;36399;51.444;-2.018;2023-03-26T11:21:02;99721.19;;;10.17;100.00
43436;BME280;36399;51.444;-2.018;2023-03-26T11:23:48;99732.53;;;10.06;100.00
43436;BME280;36399;51.444;-2.018;2023-03-26T11:26:30;99727.19;;;9.87;100.00
43436;BME280;36399;51.444;-2.018;2023-03-26T11:32:16;99759.34;;;9.51;100.00
43436;BME280;36399;51.444;-2.018;2023-03-26T11:34:59;99760.00;;;9.21;100.00
43436;BME280;36399;51.444;-2.018;2023-03-26T11:37:38;99772.78;;;8.82;100.00
43436;BME280;36399;51.444;-2.018;2023-03-26T11:40:13;99781.44;;;8.72;100.00
43436;BME280;36399;51.444;-2.018;2023-03-26T11:45:55;99795.34;;;8.68;100.00
43436;BME280;36399;51.444;-2.018;2023-03-26T11:48:25;99816.13;;;8.51;100.00
43436;BME280;36399;51.444;-2.018;2023-03-26T11:51:07;99816.97;;;8.50;100.00
43436;BME280;36399;51.444;-2.018;2023-03-26T11:53:35;99825.84;;;8.65;100.00
43436;BME280;36399;51.444;-2.018;2023-03-26T11:56:17;99829.41;;;8.73;100.00
43436;BME280;36399;51.444;-2.018;2023-03-26T11:58:56;99844.22;;;8.72;100.00
43436;BME280;36399;51.444;-2.018;2023-03-26T12:01:50;99855.38;;;8.54;100.00
43436;BME280;36399;51.444;-2.018;2023-03-26T12:04:33;99863.06;;;8.41;100.00
43436;BME280;36399;51.444;-2.018;2023-03-26T12:12:28;99895.06;;;8.24;100.00
43436;BME280;36399;51.444;-2.018;2023-03-26T12:15:22;99897.44;;;8.73;100.00
43436;BME280;36399;51.444;-2.018;2023-03-26T12:17:53;99896.44;;;8.60;100.00
43436;BME280;36399;51.444;-2.018;2023-03-26T12:20:29;99910.09;;;8.35;100.00
43436;BME280;36399;51.444;-2.018;2023-03-26T12:22:59;99930.44;;;7.98;100.00
43436;BME280;36399;51.444;-2.018;2023-03-26T12:25:28;99936.22;;;7.79;100.00
43436;BME280;36399;51.444;-2.018;2023-03-26T12:27:58;99944.38;;;7.97;100.00
43436;BME280;36399;51.444;-2.018;2023-03-26T12:33:00;99964.44;;;8.59;100.00
43436;BME280;36399;51.444;-2.018;2023-03-26T12:35:33;99963.00;;;8.83;100.00
43436;BME280;36399;51.444;-2.018;2023-03-26T12:38:23;99961.09;;;8.70;100.00
43436;BME280;36399;51.444;-2.018;2023-03-26T12:41:09;99969.66;;;8.57;100.00
43436;BME280;36399;51.444;-2.018;2023-03-26T12:46:26;99993.34;;;8.10;100.00
43436;BME280;36399;51.444;-2.018;2023-03-26T12:48:54;100004.81;;;8.20;100.00
43436;BME280;36399;51.444;-2.018;2023-03-26T12:51:35;100012.69;;;8.21;100.00
43436;BME280;36399;51.444;-2.018;2023-03-26T13:04:30;100037.81;;;8.12;100.00
43436;BME280;36399;51.444;-2.018;2023-03-26T13:07:29;100036.03;;;8.09;100.00
43436;BME280;36399;51.444;-2.018;2023-03-26T13:13:00;100042.28;;;8.19;100.00
43436;BME280;36399;51.444;-2.018;2023-03-26T13:15:45;100050.00;;;8.11;100.00
43436;BME280;36399;51.444;-2.018;2023-03-26T13:34:53;100073.13;;;8.96;100.00
43436;BME280;36399;51.444;-2.018;2023-03-26T13:43:03;100095.06;;;8.45;100.00
43436;BME280;36399;51.444;-2.018;2023-03-26T13:48:20;100106.94;;;8.82;100.00
43436;BME280;36399;51.444;-2.018;2023-03-26T13:50:56;100107.69;;;8.73;100.00
43436;BME280;36399;51.444;-2.018;2023-03-26T13:53:30;100112.75;;;8.61;100.00
43436;BME280;36399;51.444;-2.018;2023-03-26T13:55:58;100129.28;;;8.60;100.00
43436;BME280;36399;51.444;-2.018;2023-03-26T13:58:38;100126.00;;;8.73;100.00
43436;BME280;36399;51.444;-2.018;2023-03-26T14:01:11;100133.81;;;8.70;100.00
43436;BME280;36399;51.444;-2.018;2023-03-26T14:09:02;100151.09;;;8.59;100.00
43436;BME280;36399;51.444;-2.018;2023-03-26T14:11:49;100140.00;;;8.77;100.00
43436;BME280;36399;51.444;-2.018;2023-03-26T14:14:22;100147.91;;;8.80;100.00
43436;BME280;36399;51.444;-2.018;2023-03-26T14:16:58;100153.03;;;8.72;100.00
43436;BME280;36399;51.444;-2.018;2023-03-26T14:20:22;100155.75;;;8.80;100.00
43436;BME280;36399;51.444;-2.018;2023-03-26T14:22:54;100153.25;;;8.84;100.00
43436;BME280;36399;51.444;-2.018;2023-03-26T14:28:30;100154.13;;;8.85;100.00
43436;BME280;36399;51.444;-2.018;2023-03-26T14:36:21;100170.56;;;8.79;100.00
43436;BME280;36399;51.444;-2.018;2023-03-26T14:41:55;100191.06;;;9.06;100.00
43436;BME280;36399;51.444;-2.018;2023-03-26T14:47:20;100197.34;;;9.19;100.00
43436;BME280;36399;51.444;-2.018;2023-03-26T14:52:50;100208.47;;;9.03;100.00
43436;BME280;36399;51.444;-2.018;2023-03-26T15:13:40;100310.00;;;8.26;100.00
43436;BME280;36399;51.444;-2.018;2023-03-26T15:16:33;100316.81;;;8.17;100.00
43436;BME280;36399;51.444;-2.018;2023-03-26T15:27:44;100320.94;;;8.47;100.00
43436;BME280;36399;51.444;-2.018;2023-03-26T15:39:37;100310.69;;;9.09;100.00
43436;BME280;36399;51.444;-2.018;2023-03-26T15:47:37;100343.94;;;8.22;100.00
43436;BME280;36399;51.444;-2.018;2023-03-26T15:50:31;100360.50;;;8.23;100.00
43436;BME280;36399;51.444;-2.018;2023-03-26T15:58:50;100373.41;;;8.14;100.00
43436;BME280;36399;51.444;-2.018;2023-03-26T16:03:59;100384.66;;;8.11;100.00
43436;BME280;36399;51.444;-2.018;2023-03-26T16:06:46;100401.16;;;8.07;100.00
43436;BME280;36399;51.444;-2.018;2023-03-26T16:11:55;100410.81;;;8.11;100.00
43436;BME280;36399;51.444;-2.018;2023-03-26T16:17:01;100413.69;;;8.23;100.00
43436;BME280;36399;51.444;-2.018;2023-03-26T16:25:27;100452.13;;;7.88;100.00
43436;BME280;36399;51.444;-2.018;2023-03-26T16:30:36;100466.78;;;7.82;100.00
43436;BME280;36399;51.444;-2.018;2023-03-26T16:33:15;100474.63;;;7.82;100.00
43436;BME280;36399;51.444;-2.018;2023-03-26T16:36:00;100474.41;;;7.74;100.00
43436;BME280;36399;51.444;-2.018;2023-03-26T16:38:45;100485.59;;;7.69;100.00
43436;BME280;36399;51.444;-2.018;2023-03-26T16:41:17;100481.31;;;7.71;100.00
43436;BME280;36399;51.444;-2.018;2023-03-26T16:49:36;100505.38;;;7.92;100.00
43436;BME280;36399;51.444;-2.018;2023-03-26T16:52:22;100514.72;;;7.82;100.00
43436;BME280;36399;51.444;-2.018;2023-03-26T16:55:04;100520.09;;;7.88;100.00
43436;BME280;36399;51.444;-2.018;2023-03-26T16:57:53;100525.31;;;7.88;100.00
43436;BME280;36399;51.444;-2.018;2023-03-26T17:00:43;100531.34;;;7.86;100.00
43436;BME280;36399;51.444;-2.018;2023-03-26T17:17:37;100553.41;;;7.97;100.00
43436;BME280;36399;51.444;-2.018;2023-03-26T17:20:10;100555.28;;;8.03;100.00
43436;BME280;36399;51.444;-2.018;2023-03-26T17:29:04;100580.16;;;7.87;100.00
43436;BME280;36399;51.444;-2.018;2023-03-26T17:31:41;100586.75;;;7.73;100.00
43436;BME280;36399;51.444;-2.018;2023-03-26T17:44:54;100602.84;;;8.57;100.00
43436;BME280;36399;51.444;-2.018;2023-03-26T17:47:39;100592.56;;;9.05;100.00
43436;BME280;36399;51.444;-2.018;2023-03-26T17:50:29;100598.28;;;9.28;100.00
43436;BME280;36399;51.444;-2.018;2023-03-26T17:52:59;100602.28;;;9.11;100.00
43436;BME280;36399;51.444;-2.018;2023-03-26T17:55:28;100616.97;;;8.65;100.00
43436;BME280;36399;51.444;-2.018;2023-03-26T17:58:05;100624.13;;;8.35;100.00
43436;BME280;36399;51.444;-2.018;2023-03-26T18:00:39;100628.44;;;8.01;100.00
43436;BME280;36399;51.444;-2.018;2023-03-26T18:03:15;100634.50;;;7.67;100.00
43436;BME280;36399;51.444;-2.018;2023-03-26T18:05:43;100650.94;;;7.32;100.00
43436;BME280;36399;51.444;-2.018;2023-03-26T18:14:35;100668.16;;;6.43;100.00
43436;BME280;36399;51.444;-2.018;2023-03-26T18:19:12;100665.47;;;6.14;100.00
43436;BME280;36399;51.444;-2.018;2023-03-26T18:21:52;100680.59;;;5.99;100.00
43436;BME280;36399;51.444;-2.018;2023-03-26T18:24:37;100681.91;;;5.88;100.00
43436;BME280;36399;51.444;-2.018;2023-03-26T18:27:14;100681.59;;;5.79;100.00
43436;BME280;36399;51.444;-2.018;2023-03-26T18:29:59;100694.03;;;5.63;100.00
43436;BME280;36399;51.444;-2.018;2023-03-26T18:32:27;100713.47;;;5.49;100.00
43436;BME280;36399;51.444;-2.018;2023-03-26T18:35:10;100714.56;;;5.32;100.00
43436;BME280;36399;51.444;-2.018;2023-03-26T18:37:39;100717.38;;;5.16;100.00
43436;BME280;36399;51.444;-2.018;2023-03-26T18:40:22;100727.69;;;5.13;100.00
43436;BME280;36399;51.444;-2.018;2023-03-26T18:42:51;100739.41;;;5.01;100.00
43436;BME280;36399;51.444;-2.018;2023-03-26T18:45:36;100740.31;;;4.81;100.00